Главная страница
METAR-TAF:

METAR-TAF

Аэропорты :

Кабул, Афганистан

широта: 34-38N, долгота: 069-12E, высота над уровнем моря: 1789 м

Текущие метеонаблюдения

Эта сводка был подготовлена 55 минут назад, в 03:04 UTC
Ветер 2 Узел переменных направлений
Температура -2°C
Влажность 50%
Давление 1016 hPa
Видимость: 0900 м
дым

METAR: OAKB 240304Z VRB02KT 2000 0900SE FU NSC M02/M11 Q1016 RMK A3001 YLO

Время: 08:29 (03:59 UTC)

Прогноз

Эта сводка был подготовлена 4 часа и 54 минут назад, в 23:05 UTC
Прогноз действительный с 24-го 00 UTC до 24-го 24 UTC
Ветер 2 Узел переменных направлений
Видимость: 7000 м
временами
С 24-го 02 UTC до 24-го 06 UTC
Видимость: 2500 м
изменения
С 24-го 13 UTC до 24-го 15 UTC
Видимость: 3000 м
дым
изменения
С 24-го 16 UTC до 24-го 18 UTC
Видимость: 1300 м
изменения
С 24-го 21 UTC до 24-го 23 UTC
Видимость: 4000 м

TAF: OAKB 232305Z 2400/2424 VRB02KT 7000 NSC TEMPO 2402/2406 2500 BECMG 2413/2415 3000 FU BECMG 2416/2418 1300 BECMG 2421/2423 4000

Метеонаблюдения и прогнозы для более 4000 аэропортов (сводки METAR и TAF).

Имеющиеся станции представлены на карте желтыми и красными точками.

Чтобы увидеть название станции, наведите на нее мышь.

Затем щелкните, чтобы увидеть метеонаблюдения и метеопрогнозы.

Управление картой: чтобы увеличить масштаб, щелкните зеленые кнопки с черным крестиком; чтобы уменьшить масштаб, щелкните зеленую кнопку с тире; для просмотра соседних карт щелкайте зеленые стрелки.


METAR-TAF: